Boerne, TX

1:03 PM CDT on October 02, 2014 (GMT -0500)
San Antonio International | Change Station
CLOSE
Current Station
Airport
Location: San Antonio,
Elevation: 794 ft
Nearby Weather Stations

Elev 794 ft 29.53 °N, 98.47 °W | Updated 12 minutes ago

Mostly Cloudy
Mostly Cloudy
90 °F
Feels Like 96 °F
N
14
Wind Variable Wind from SSW
Gusts 25 mph

Today
High -- | Low -- °F
--% Chance of Precip.
Yesterday
High -- | Low -- °F
Precip. -- in
7:28 AM 7:19 PM
First Quarter, 61% visible
Pressure 29.82 in
Visibility 10.0 miles
Clouds Mostly Cloudy 3700 ft
Heat Index 96 °F
Dew Point 71 °F
Humidity 54%
Rainfall 0.00 in
Snow Depth Not available.
UV 5 out of 12
Pollen 8.70 out of 12
Ozone Good
PM2.5 Moderate
Flu Activity Not available.
METAR KSAT 021751Z 20012G22KT 10SM BKN037 32/22 A2988 RMK AO2 SLP098 T03220217 10328 20261 58005

More Conditions Fewer Conditions

Pressure 29.82 in
Visibility 10.0 miles
Clouds Mostly Cloudy 3700 ft
Heat Index 96 °F
Dew Point 71 °F
Humidity 54%
Rainfall 0.00 in
Snow Depth Not available.
UV 5 out of 12
Pollen 8.70 out of 12
Ozone Good
PM2.5 Moderate
Flu Activity Not available.
METAR KSAT 021751Z 20012G22KT 10SM BKN037 32/22 A2988 RMK AO2 SLP098 T03220217 10328 20261 58005

More Conditions Fewer Conditions

10-Day Weather Forecast

Almanac

Astronomy

Oct. 02, 2014 Rise Set
Actual Time 7:28 AM CDT 7:19 PM CDT
Civil Twilight 7:05 AM CDT 7:43 PM CDT
Nautical Twilight 6:37 AM CDT 8:10 PM CDT
Astronomical Twilight 6:09 AM CDT 8:38 PM CDT
Moon 3:04 PM CDT 1:11 AM CDT
Length of Visible Light 12h 37m
Length of Day
11h 50m
Tomorrow will be 1m 46s shorter.
First Quarter, 61% of the Moon is Illuminated
Today
First Quarter
Oct 8
Full
Oct 15
Last Quarter
Oct 23
New
Oct 30
First Quarter

Today's Extremes

State Highs State Lows

Community

WunderPhotos

Upload Photos

1,758,316 photos uploaded!

WunderBlogs® & News

Nearby

Air Quality

  Air Quality AQ Index Pollutant
Yesterday Good
OZONE
Yesterday Good
PM2.5
Current Moderate
PM2.5
Current Good
OZONE
Thursday Good
OZONE
Thursday Good
PM10
Friday Good
OZONE
Friday Good
PM10
Saturday Good
OZONE
Saturday Good
PM10
Sunday Good
OZONE
Sunday Good
PM10

Snow Depth

Station Depth Elevation
No new snow has been reported.

Earthquake Activity

City Distance Mag. Time & Date
No recent earthquake activity has been reported nearby.
Minimum magnitude displayed is 2.5.

Coastal Water Temperatures

Place Temperature
No Stations Reporting

Nearby Weather Stations